Emerald Hornblower — WCY6120 — position and weather

sailwx.info

Track history (hours):
 
Tides and Currents Weather Stations Pressure Air Temp Water Temp Dewpoint Dewpoint Depression Visibility Wind Speed Wind Dir Waves Ship Positions

Emerald Hornblower

Owner: HORNBLOWER CRUISES AND EVENTS, SAN DIEGO, CA. More information available from US FCC via Universal Licensing System and Coast Guard Vessel Documentation Center.

Last reported at 2017-Sep-22 01:56 UTC. Time now 2017-Sep-22 20:42 UTC.
Position N 32°42' W 117°09'.

Length 23 m; draft 1.8 m.

Type: Passenger vessel. MMSI: 367370230.

Date/timePositionNaut miles runAvg speedWind from/ knotsBaromVisibWave heightAir tempDewpointWater temp
2017-Sep-22 01:56N 32°42' W 117°09'1 2.7
2017-Sep-22 01:28N 32°41' W 117°10'1 3.0
2017-Sep-22 00:59N 32°42' W 117°10'  
2017-Sep-18 21:42N 32°43' W 117°12'1 4.3
2017-Sep-18 21:29N 32°44' W 117°13'2 0.1
2017-Sep-18 03:15N 32°43' W 117°10'1 3.0
2017-Sep-18 03:00N 32°43' W 117°11'3 5.1
2017-Sep-18 02:28N 32°41' W 117°09'2 2.9
2017-Sep-18 01:50N 32°42' W 117°11'1 0.0
2017-Sep-17 00:38N 32°43' W 117°11'1 4.4
2017-Sep-17 00:30N 32°43' W 117°11'2 3.9
2017-Sep-16 23:58N 32°41' W 117°10'2 0.1
2017-Sep-16 04:11N 32°43' W 117°11'0 0.5
2017-Sep-16 03:37N 32°43' W 117°11'1 4.0
2017-Sep-16 03:15N 32°43' W 117°12'1 6.1
2017-Sep-16 03:00N 32°42' W 117°14'1 2.5
2017-Sep-16 02:30N 32°43' W 117°12'5 6.4
2017-Sep-16 01:43N 32°40' W 117°08'2 5.0
2017-Sep-16 01:20N 32°41' W 117°09'2 5.2
2017-Sep-16 00:59N 32°43' W 117°10'0 0.4
2017-Sep-16 00:30N 32°43' W 117°11'0 0.0
2017-Sep-15 01:58N 32°43' W 117°10'0 1.1
2017-Sep-15 01:30N 32°43' W 117°11'3 5.2
2017-Sep-15 01:00N 32°42' W 117°14'3 3.3
2017-Sep-15 00:11N 32°43' W 117°11'2 8.1
2017-Sep-14 23:59N 32°42' W 117°09'1 2.1
2017-Sep-14 23:26N 32°42' W 117°11'1 1.7
2017-Sep-14 22:54N 32°43' W 117°11'2 5.8
2017-Sep-14 22:31N 32°42' W 117°14'3 4.1
2017-Sep-14 21:46N 32°43' W 117°10'3 6.2
2017-Sep-14 21:19N 32°41' W 117°08'2 6.2
2017-Sep-14 20:55N 32°42' W 117°11'1 2.4
2017-Sep-14 20:22N 32°43' W 117°12'2 5.2
2017-Sep-14 20:00N 32°42' W 117°14'3 3.4
2017-Sep-14 19:09N 32°43' W 117°11'2 8.0
2017-Sep-14 18:57N 32°42' W 117°09'1 1.5
2017-Sep-14 18:29N 32°42' W 117°10'2 2.9
2017-Sep-14 17:54N 32°43' W 117°12'2 5.8
2017-Sep-14 17:30N 32°42' W 117°14'3 2.3
2017-Sep-14 16:10N 32°43' W 117°11'0 0.0
2017-Sep-14 02:00N 32°43' W 117°10'0 0.8
2017-Sep-14 01:29N 32°43' W 117°11'3 6.3
2017-Sep-14 01:00N 32°42' W 117°14'3 3.9
2017-Sep-14 00:12N 32°43' W 117°10'1 6.6
2017-Sep-13 23:59N 32°42' W 117°09'0 0.1
2017-Sep-13 23:30N 32°42' W 117°09'2 1.4
2017-Sep-13 22:22N 32°43' W 117°11'0 0.0
2017-Sep-13 00:41N 32°43' W 117°11'1 1.6
2017-Sep-13 00:06N 32°42' W 117°10'0 3.3
2017-Sep-12 23:58N 32°42' W 117°10'2 3.8
2017-Sep-12 23:28N 32°43' W 117°12'2 3.0
2017-Sep-12 22:53N 32°42' W 117°10'1 1.9
2017-Sep-12 22:24N 32°41' W 117°09'1 1.0
2017-Sep-12 21:54N 32°41' W 117°09'1 1.1
2017-Sep-12 20:43N 32°42' W 117°10'1 0.1
2017-Sep-12 04:23N 32°43' W 117°11'2 1.9
2017-Sep-12 03:30N 32°42' W 117°10'3 5.1
2017-Sep-12 03:00N 32°43' W 117°12'1 2.2
2017-Sep-12 02:28N 32°43' W 117°11'1 3.0
2017-Sep-12 02:00N 32°42' W 117°10'  
Track history (hours):
 
Tides and Currents Weather Stations Pressure Air Temp Water Temp Dewpoint Dewpoint Depression Visibility Wind Speed Wind Dir Waves Ship Positions

Emerald Hornblower

Owner: HORNBLOWER CRUISES AND EVENTS, SAN DIEGO, CA. More information available from US FCC via Universal Licensing System and Coast Guard Vessel Documentation Center.

Last reported at 2017-Sep-22 01:56 UTC. Time now 2017-Sep-22 20:42 UTC.
Position N 32°42' W 117°09'.

Length 23 m; draft 1.8 m.

Type: Passenger vessel. MMSI: 367370230.

Date/timePositionNaut miles runAvg speedWind from/ knotsBaromVisibWave heightAir tempDewpointWater temp
2017-Sep-22 01:56N 32°42' W 117°09'1 2.7
2017-Sep-22 01:28N 32°41' W 117°10'1 3.0
2017-Sep-22 00:59N 32°42' W 117°10'  
2017-Sep-18 21:42N 32°43' W 117°12'1 4.3
2017-Sep-18 21:29N 32°44' W 117°13'2 0.1
2017-Sep-18 03:15N 32°43' W 117°10'1 3.0
2017-Sep-18 03:00N 32°43' W 117°11'3 5.1
2017-Sep-18 02:28N 32°41' W 117°09'2 2.9
2017-Sep-18 01:50N 32°42' W 117°11'1 0.0
2017-Sep-17 00:38N 32°43' W 117°11'1 4.4
2017-Sep-17 00:30N 32°43' W 117°11'2 3.9
2017-Sep-16 23:58N 32°41' W 117°10'2 0.1
2017-Sep-16 04:11N 32°43' W 117°11'0 0.5
2017-Sep-16 03:37N 32°43' W 117°11'1 4.0
2017-Sep-16 03:15N 32°43' W 117°12'1 6.1
2017-Sep-16 03:00N 32°42' W 117°14'1 2.5
2017-Sep-16 02:30N 32°43' W 117°12'5 6.4
2017-Sep-16 01:43N 32°40' W 117°08'2 5.0
2017-Sep-16 01:20N 32°41' W 117°09'2 5.2
2017-Sep-16 00:59N 32°43' W 117°10'0 0.4
2017-Sep-16 00:30N 32°43' W 117°11'0 0.0
2017-Sep-15 01:58N 32°43' W 117°10'0 1.1
2017-Sep-15 01:30N 32°43' W 117°11'3 5.2
2017-Sep-15 01:00N 32°42' W 117°14'3 3.3
2017-Sep-15 00:11N 32°43' W 117°11'2 8.1
2017-Sep-14 23:59N 32°42' W 117°09'1 2.1
2017-Sep-14 23:26N 32°42' W 117°11'1 1.7
2017-Sep-14 22:54N 32°43' W 117°11'2 5.8
2017-Sep-14 22:31N 32°42' W 117°14'3 4.1
2017-Sep-14 21:46N 32°43' W 117°10'3 6.2
2017-Sep-14 21:19N 32°41' W 117°08'2 6.2
2017-Sep-14 20:55N 32°42' W 117°11'1 2.4
2017-Sep-14 20:22N 32°43' W 117°12'2 5.2
2017-Sep-14 20:00N 32°42' W 117°14'3 3.4
2017-Sep-14 19:09N 32°43' W 117°11'2 8.0
2017-Sep-14 18:57N 32°42' W 117°09'1 1.5
2017-Sep-14 18:29N 32°42' W 117°10'2 2.9
2017-Sep-14 17:54N 32°43' W 117°12'2 5.8
2017-Sep-14 17:30N 32°42' W 117°14'3 2.3
2017-Sep-14 16:10N 32°43' W 117°11'0 0.0
2017-Sep-14 02:00N 32°43' W 117°10'0 0.8
2017-Sep-14 01:29N 32°43' W 117°11'3 6.3
2017-Sep-14 01:00N 32°42' W 117°14'3 3.9
2017-Sep-14 00:12N 32°43' W 117°10'1 6.6
2017-Sep-13 23:59N 32°42' W 117°09'0 0.1
2017-Sep-13 23:30N 32°42' W 117°09'2 1.4
2017-Sep-13 22:22N 32°43' W 117°11'0 0.0
2017-Sep-13 00:41N 32°43' W 117°11'1 1.6
2017-Sep-13 00:06N 32°42' W 117°10'0 3.3
2017-Sep-12 23:58N 32°42' W 117°10'2 3.8
2017-Sep-12 23:28N 32°43' W 117°12'2 3.0
2017-Sep-12 22:53N 32°42' W 117°10'1 1.9
2017-Sep-12 22:24N 32°41' W 117°09'1 1.0
2017-Sep-12 21:54N 32°41' W 117°09'1 1.1
2017-Sep-12 20:43N 32°42' W 117°10'1 0.1
2017-Sep-12 04:23N 32°43' W 117°11'2 1.9
2017-Sep-12 03:30N 32°42' W 117°10'3 5.1
2017-Sep-12 03:00N 32°43' W 117°12'1 2.2
2017-Sep-12 02:28N 32°43' W 117°11'1 3.0
2017-Sep-12 02:00N 32°42' W 117°10'  

Dump ship's entire track history